Time;durP1;ratioP1;P1;durP2;ratioP2;P2;SDS_P1;SDS_P2;PMS_P1;PMS_P2;Temp;Humidity;BMP_temperature;BMP_pressure;BME280_temperature;BME280_humidity;BME280_pressure;Samples;Min_cycle;Max_cycle;Signal;HPM_P1;HPM_P2
2023/03/13 00:00:28;;;;;;;12.23;4.18;;;;;;;;;;5012292;28;20081;-33
2023/03/13 00:02:56;;;;;;;9.13;4.20;;;;;;;;;;5012784;28;20034;-34
2023/03/13 00:05:23;;;;;;;13.95;4.45;;;;;;;;;;5012635;28;20021;-33
2023/03/13 00:07:50;;;;;;;19.27;4.65;;;;;;;;;;5010270;28;20038;-38
2023/03/13 00:10:17;;;;;;;11.30;4.63;;;;;;;;;;5010953;28;20056;-32
2023/03/13 00:12:43;;;;;;;13.80;5.40;;;;;;;;;;5011505;28;20046;-35
2023/03/13 00:15:11;;;;;;;13.98;5.25;;;;;;;;;;5009214;28;20069;-35
2023/03/13 00:17:38;;;;;;;13.80;4.85;;;;;;;;;;4994714;28;20030;-33
2023/03/13 00:20:06;;;;;;;12.30;5.45;;;;;;;;;;5010521;28;20121;-37
2023/03/13 00:22:33;;;;;;;16.50;5.78;;;;;;;;;;5010434;28;20038;-35
2023/03/13 00:25:00;;;;;;;14.82;6.28;;;;;;;;;;5011541;28;20398;-36
2023/03/13 00:27:27;;;;;;;20.50;8.60;;;;;;;;;;5011277;28;20030;-35
2023/03/13 00:29:57;;;;;;;16.63;9.32;;;;;;;;;;5011847;28;20046;-34
2023/03/13 00:32:24;;;;;;;23.73;12.27;;;;;;;;;;4993589;28;20495;-36
2023/03/13 00:34:51;;;;;;;20.17;11.02;;;;;;;;;;5010829;28;20080;-34
2023/03/13 00:37:18;;;;;;;21.02;10.35;;;;;;;;;;5011435;28;20038;-33
2023/03/13 00:39:45;;;;;;;19.52;10.25;;;;;;;;;;5011404;28;20029;-34
2023/03/13 00:42:12;;;;;;;19.23;9.60;;;;;;;;;;5011611;28;20061;-33
2023/03/13 00:44:39;;;;;;;19.63;9.32;;;;;;;;;;5011546;28;20045;-34
2023/03/13 00:47:06;;;;;;;22.60;8.68;;;;;;;;;;5011049;28;20048;-33
2023/03/13 00:49:33;;;;;;;22.88;7.82;;;;;;;;;;5003088;28;20049;-34
2023/03/13 00:52:00;;;;;;;22.17;7.97;;;;;;;;;;5010566;28;20084;-34
2023/03/13 00:54:27;;;;;;;23.02;7.80;;;;;;;;;;5010354;28;20024;-33
2023/03/13 00:56:55;;;;;;;19.17;7.30;;;;;;;;;;5010786;28;20026;-38
2023/03/13 00:59:22;;;;;;;16.58;7.10;;;;;;;;;;5005639;28;20030;-32
2023/03/13 01:01:49;;;;;;;17.63;6.68;;;;;;;;;;4991947;28;20531;-34
2023/03/13 01:04:16;;;;;;;22.15;6.82;;;;;;;;;;4979073;28;20030;-33
2023/03/13 01:06:43;;;;;;;17.85;6.88;;;;;;;;;;4991663;28;20029;-35
2023/03/13 01:09:11;;;;;;;21.15;7.40;;;;;;;;;;4991552;28;20030;-34
2023/03/13 01:11:39;;;;;;;15.63;7.30;;;;;;;;;;4991309;28;20113;-33
2023/03/13 01:14:11;;;;;;;14.52;7.25;;;;;;;;;;4991571;28;20121;-33
2023/03/13 01:16:38;;;;;;;23.98;7.07;;;;;;;;;;4990804;28;20026;-33
2023/03/13 01:19:07;;;;;;;14.45;6.43;;;;;;;;;;4990954;28;20029;-35
2023/03/13 01:21:35;;;;;;;15.10;6.78;;;;;;;;;;4990733;28;20558;-33
2023/03/13 01:24:02;;;;;;;16.25;6.88;;;;;;;;;;4989925;28;20388;-38
2023/03/13 01:26:29;;;;;;;11.68;5.55;;;;;;;;;;4988905;28;20034;-33
2023/03/13 01:28:56;;;;;;;16.63;6.85;;;;;;;;;;4984632;28;20479;-33
2023/03/13 01:31:23;;;;;;;14.07;5.60;;;;;;;;;;4989456;28;20057;-34
2023/03/13 01:33:51;;;;;;;12.13;5.70;;;;;;;;;;4990314;28;20034;-36
2023/03/13 01:36:19;;;;;;;9.05;5.57;;;;;;;;;;4990902;28;20034;-34
2023/03/13 01:38:49;;;;;;;10.02;5.18;;;;;;;;;;4990675;28;20123;-35
2023/03/13 01:41:17;;;;;;;12.93;5.82;;;;;;;;;;4990059;28;20049;-35
2023/03/13 01:43:44;;;;;;;12.65;5.25;;;;;;;;;;4989128;28;20118;-35
2023/03/13 01:46:13;;;;;;;13.25;5.22;;;;;;;;;;4992743;28;20523;-33
2023/03/13 01:48:41;;;;;;;12.40;5.00;;;;;;;;;;4993907;28;20092;-36
2023/03/13 01:51:11;;;;;;;9.60;4.95;;;;;;;;;;4993756;28;20121;-32
2023/03/13 01:53:41;;;;;;;12.43;5.00;;;;;;;;;;4991036;28;20041;-35
2023/03/13 01:56:12;;;;;;;10.10;4.53;;;;;;;;;;4993214;28;20030;-34
2023/03/13 01:58:39;;;;;;;19.00;4.20;;;;;;;;;;4982595;28;20054;-34
2023/03/13 02:01:06;;;;;;;14.70;4.15;;;;;;;;;;4995034;28;20022;-34
2023/03/13 02:03:34;;;;;;;12.30;4.32;;;;;;;;;;4994983;28;20104;-33
2023/03/13 02:06:02;;;;;;;13.85;4.50;;;;;;;;;;4994858;28;20034;-33
2023/03/13 02:08:37;;;;;;;10.65;4.15;;;;;;;;;;4995066;28;20042;-34
2023/03/13 02:11:16;;;;;;;7.85;4.28;;;;;;;;;;4994869;28;20595;-34
2023/03/13 02:13:43;;;;;;;10.55;4.30;;;;;;;;;;4994751;28;20049;-34
2023/03/13 02:16:11;;;;;;;7.70;4.25;;;;;;;;;;4995023;28;20113;-34
2023/03/13 02:18:38;;;;;;;10.00;3.92;;;;;;;;;;4994368;28;20392;-37
2023/03/13 02:21:10;;;;;;;9.95;3.95;;;;;;;;;;4994211;28;20041;-35
2023/03/13 02:23:45;;;;;;;6.88;3.70;;;;;;;;;;4994577;28;20388;-33
2023/03/13 02:26:13;;;;;;;9.18;3.75;;;;;;;;;;4986739;28;20066;-33
2023/03/13 02:28:40;;;;;;;6.57;3.78;;;;;;;;;;4987131;28;20035;-35
2023/03/13 02:31:08;;;;;;;7.90;3.75;;;;;;;;;;4985823;28;20085;-35
2023/03/13 02:33:40;;;;;;;7.63;3.40;;;;;;;;;;4990463;28;20030;-37
2023/03/13 02:36:08;;;;;;;7.82;3.70;;;;;;;;;;4965863;28;20489;-35
2023/03/13 02:38:36;;;;;;;13.65;4.15;;;;;;;;;;4984117;28;20117;-34
2023/03/13 02:41:05;;;;;;;6.80;3.58;;;;;;;;;;4984022;28;20101;-32
2023/03/13 02:43:33;;;;;;;9.27;3.75;;;;;;;;;;4984906;28;20035;-33
2023/03/13 02:46:04;;;;;;;8.90;3.33;;;;;;;;;;4983654;28;20030;-34
2023/03/13 02:48:32;;;;;;;6.03;3.25;;;;;;;;;;4982829;28;20047;-34
2023/03/13 02:50:59;;;;;;;9.43;3.50;;;;;;;;;;4984298;28;20076;-36
2023/03/13 02:53:26;;;;;;;8.55;3.40;;;;;;;;;;4984175;28;20038;-34
2023/03/13 02:55:53;;;;;;;5.20;3.30;;;;;;;;;;4982688;28;20085;-34
2023/03/13 02:58:20;;;;;;;8.32;3.22;;;;;;;;;;4983229;28;20030;-35
2023/03/13 03:00:47;;;;;;;11.05;3.53;;;;;;;;;;4984362;28;20401;-34
2023/03/13 03:03:14;;;;;;;7.43;3.42;;;;;;;;;;4982461;28;20050;-34
2023/03/13 03:05:41;;;;;;;4.88;2.85;;;;;;;;;;4984014;28;20385;-32
2023/03/13 03:08:08;;;;;;;6.22;3.00;;;;;;;;;;4984266;28;20108;-35
2023/03/13 03:10:36;;;;;;;9.70;3.65;;;;;;;;;;4983135;28;20034;-36
2023/03/13 03:13:03;;;;;;;7.88;3.58;;;;;;;;;;4981310;28;20129;-35
2023/03/13 03:15:30;;;;;;;7.63;3.10;;;;;;;;;;4982417;28;20116;-32
2023/03/13 03:17:57;;;;;;;5.20;2.53;;;;;;;;;;4984467;28;20117;-33
2023/03/13 03:20:24;;;;;;;6.65;2.88;;;;;;;;;;4983796;28;20022;-35
2023/03/13 03:22:51;;;;;;;5.28;2.58;;;;;;;;;;4977081;28;20045;-35
2023/03/13 03:25:18;;;;;;;7.25;3.17;;;;;;;;;;4974296;28;20033;-36
2023/03/13 03:27:45;;;;;;;7.88;2.63;;;;;;;;;;4974777;28;20178;-34
2023/03/13 03:30:12;;;;;;;5.97;2.90;;;;;;;;;;4974870;28;20031;-33
2023/03/13 03:32:39;;;;;;;5.35;2.72;;;;;;;;;;4974786;28;20027;-34
2023/03/13 03:35:06;;;;;;;4.43;2.47;;;;;;;;;;4974762;28;20045;-33
2023/03/13 03:37:33;;;;;;;6.00;2.80;;;;;;;;;;4974644;28;20046;-35
2023/03/13 03:40:00;;;;;;;5.57;2.33;;;;;;;;;;4974522;28;20429;-34
2023/03/13 03:42:27;;;;;;;5.50;2.45;;;;;;;;;;4974603;28;20027;-35
2023/03/13 03:44:54;;;;;;;4.28;2.20;;;;;;;;;;4974539;28;20031;-34
2023/03/13 03:47:21;;;;;;;6.18;2.88;;;;;;;;;;4974530;28;20070;-34
2023/03/13 03:49:48;;;;;;;3.75;2.15;;;;;;;;;;4974084;28;20049;-32
2023/03/13 03:52:16;;;;;;;5.22;2.67;;;;;;;;;;4973734;28;20031;-33
2023/03/13 03:54:43;;;;;;;3.38;2.15;;;;;;;;;;4973691;28;20093;-36
2023/03/13 03:57:10;;;;;;;6.75;2.20;;;;;;;;;;4973674;28;20045;-34
2023/03/13 03:59:37;;;;;;;5.25;2.35;;;;;;;;;;4974102;28;20101;-34
2023/03/13 04:02:04;;;;;;;4.95;2.15;;;;;;;;;;4974244;28;20030;-33
2023/03/13 04:04:31;;;;;;;4.70;1.98;;;;;;;;;;4974063;28;20045;-32
2023/03/13 04:06:58;;;;;;;7.35;2.17;;;;;;;;;;4974054;28;20160;-32
2023/03/13 04:09:25;;;;;;;4.03;1.90;;;;;;;;;;4974080;28;20042;-32
2023/03/13 04:11:52;;;;;;;6.22;2.22;;;;;;;;;;4973971;28;20073;-32
2023/03/13 04:14:19;;;;;;;4.07;1.80;;;;;;;;;;4974062;28;20374;-33
2023/03/13 04:16:46;;;;;;;5.43;2.05;;;;;;;;;;4973999;28;20123;-32
2023/03/13 04:19:13;;;;;;;3.17;1.63;;;;;;;;;;4973791;28;20128;-32
2023/03/13 04:21:40;;;;;;;3.85;2.00;;;;;;;;;;4973286;28;20019;-33
2023/03/13 04:24:07;;;;;;;4.38;2.15;;;;;;;;;;4973149;28;20577;-32
2023/03/13 04:26:34;;;;;;;4.22;1.88;;;;;;;;;;4973117;28;20034;-32
2023/03/13 04:29:01;;;;;;;4.72;2.22;;;;;;;;;;4973160;28;20513;-35
2023/03/13 04:31:28;;;;;;;3.67;1.90;;;;;;;;;;4973619;28;20481;-32
2023/03/13 04:33:55;;;;;;;3.92;1.70;;;;;;;;;;4973607;28;20114;-33
2023/03/13 04:36:22;;;;;;;5.10;2.10;;;;;;;;;;4973699;28;20053;-33
2023/03/13 04:38:49;;;;;;;5.25;2.05;;;;;;;;;;4973575;28;20057;-32
2023/03/13 04:41:16;;;;;;;4.20;1.83;;;;;;;;;;4973391;28;20077;-33
2023/03/13 04:43:43;;;;;;;4.75;1.98;;;;;;;;;;4973470;28;20031;-33
2023/03/13 04:46:10;;;;;;;4.40;1.92;;;;;;;;;;4973486;28;20031;-31
2023/03/13 04:48:37;;;;;;;6.93;1.90;;;;;;;;;;4973380;28;20043;-34
2023/03/13 04:51:04;;;;;;;4.32;1.85;;;;;;;;;;4973296;28;20106;-31
2023/03/13 04:53:31;;;;;;;4.45;1.88;;;;;;;;;;4973307;28;20113;-35
2023/03/13 04:55:58;;;;;;;5.78;1.70;;;;;;;;;;4973339;28;20026;-33
2023/03/13 04:58:25;;;;;;;3.10;1.58;;;;;;;;;;4973316;28;20041;-33
2023/03/13 05:00:53;;;;;;;4.22;1.73;;;;;;;;;;4973156;28;20033;-32
2023/03/13 05:03:20;;;;;;;5.45;1.67;;;;;;;;;;4973161;28;20048;-32
2023/03/13 05:05:47;;;;;;;2.97;1.55;;;;;;;;;;4973186;28;20035;-32
2023/03/13 05:08:14;;;;;;;8.50;2.10;;;;;;;;;;4973132;28;20505;-34
2023/03/13 05:10:42;;;;;;;11.73;2.20;;;;;;;;;;4973001;28;20026;-33
2023/03/13 05:13:09;;;;;;;16.05;1.60;;;;;;;;;;4972896;28;20058;-33
2023/03/13 05:15:36;;;;;;;29.33;2.63;;;;;;;;;;4973079;28;20034;-32
2023/03/13 05:18:03;;;;;;;35.88;2.05;;;;;;;;;;4972997;28;20035;-33
2023/03/13 05:20:30;;;;;;;26.73;2.15;;;;;;;;;;4972579;28;20118;-31
2023/03/13 05:22:57;;;;;;;34.70;2.90;;;;;;;;;;4972846;28;20031;-33
2023/03/13 05:25:24;;;;;;;18.17;2.00;;;;;;;;;;4972840;28;20389;-32
2023/03/13 05:27:51;;;;;;;29.02;2.50;;;;;;;;;;4972880;28;20564;-33
2023/03/13 05:30:18;;;;;;;17.52;1.65;;;;;;;;;;4972590;28;20394;-34
2023/03/13 05:32:45;;;;;;;16.13;1.38;;;;;;;;;;4972184;28;20058;-35
2023/03/13 05:35:12;;;;;;;8.63;1.10;;;;;;;;;;4972166;28;20035;-32
2023/03/13 05:37:39;;;;;;;9.05;1.13;;;;;;;;;;4972070;28;20218;-31
2023/03/13 05:40:06;;;;;;;4.07;0.93;;;;;;;;;;4972242;28;20139;-33
2023/03/13 05:42:33;;;;;;;8.27;1.30;;;;;;;;;;4972702;28;20074;-32
2023/03/13 05:45:00;;;;;;;5.78;1.10;;;;;;;;;;4972765;28;20046;-33
2023/03/13 05:47:27;;;;;;;7.05;1.00;;;;;;;;;;4972711;28;20117;-32
2023/03/13 05:49:54;;;;;;;5.20;0.95;;;;;;;;;;4972527;28;20102;-33
2023/03/13 05:52:21;;;;;;;7.45;1.20;;;;;;;;;;4972632;28;20106;-31
2023/03/13 05:54:48;;;;;;;5.75;1.42;;;;;;;;;;4972106;28;20806;-32
2023/03/13 05:57:15;;;;;;;6.55;1.65;;;;;;;;;;4971859;28;20043;-32
2023/03/13 05:59:42;;;;;;;5.55;1.20;;;;;;;;;;4971907;28;20042;-34
2023/03/13 06:02:09;;;;;;;5.40;1.33;;;;;;;;;;4971098;28;20037;-34
2023/03/13 06:04:36;;;;;;;3.58;1.23;;;;;;;;;;4971682;28;20030;-33
2023/03/13 06:07:03;;;;;;;5.15;1.40;;;;;;;;;;4972143;28;20539;-34
2023/03/13 06:09:30;;;;;;;5.68;1.50;;;;;;;;;;4972478;28;20033;-33
2023/03/13 06:11:57;;;;;;;4.00;1.20;;;;;;;;;;4972391;28;20063;-34
2023/03/13 06:14:24;;;;;;;3.35;1.25;;;;;;;;;;4972486;28;20082;-34
2023/03/13 06:16:54;;;;;;;2.75;1.20;;;;;;;;;;4972553;28;20478;-37
2023/03/13 06:19:23;;;;;;;2.97;1.15;;;;;;;;;;4972510;28;20050;-34
2023/03/13 06:21:50;;;;;;;4.35;1.20;;;;;;;;;;4972130;28;20477;-34
2023/03/13 06:24:17;;;;;;;5.15;1.33;;;;;;;;;;4971692;28;20023;-37
2023/03/13 06:26:44;;;;;;;3.75;1.58;;;;;;;;;;4971669;28;20023;-34
2023/03/13 06:29:11;;;;;;;5.15;1.50;;;;;;;;;;4971412;28;20438;-34
2023/03/13 06:31:38;;;;;;;3.22;1.42;;;;;;;;;;4971824;28;20523;-33
2023/03/13 06:34:05;;;;;;;5.82;1.30;;;;;;;;;;4975761;28;20023;-34
2023/03/13 06:36:32;;;;;;;3.45;1.27;;;;;;;;;;4975952;28;20026;-34
2023/03/13 06:38:59;;;;;;;4.07;1.45;;;;;;;;;;4975897;28;20121;-35
2023/03/13 06:41:26;;;;;;;4.32;1.10;;;;;;;;;;4994508;28;20042;-34
2023/03/13 06:43:53;;;;;;;5.32;1.20;;;;;;;;;;4995101;28;20369;-35
2023/03/13 06:46:22;;;;;;;5.57;2.00;;;;;;;;;;4995190;28;20026;-35
2023/03/13 06:48:49;;;;;;;5.25;1.30;;;;;;;;;;4995125;28;20038;-35
2023/03/13 06:51:18;;;;;;;5.05;1.40;;;;;;;;;;4994625;28;20057;-34
2023/03/13 06:53:46;;;;;;;4.43;1.52;;;;;;;;;;4994908;28;20098;-34
2023/03/13 06:56:13;;;;;;;6.53;1.40;;;;;;;;;;4994862;28;20113;-35
2023/03/13 06:58:40;;;;;;;6.03;1.55;;;;;;;;;;4994950;28;20590;-35
2023/03/13 07:01:11;;;;;;;3.17;1.38;;;;;;;;;;4994972;28;20062;-34
2023/03/13 07:03:40;;;;;;;4.78;1.50;;;;;;;;;;4994730;28;20033;-35
2023/03/13 07:06:07;;;;;;;4.72;1.58;;;;;;;;;;4994698;28;20582;-34
2023/03/13 07:08:35;;;;;;;6.63;1.52;;;;;;;;;;4994711;28;20715;-33
2023/03/13 07:11:03;;;;;;;4.57;1.30;;;;;;;;;;4994583;28;20030;-35
2023/03/13 07:13:30;;;;;;;7.65;1.80;;;;;;;;;;5161616;23;20064;-25
2023/03/13 07:16:03;;;;;;;6.30;1.85;;;;;;;;;;5052981;28;20025;-24
2023/03/13 07:18:30;;;;;;;10.45;2.42;;;;;;;;;;5053904;28;20037;-24
2023/03/13 07:20:58;;;;;;;10.95;2.25;;;;;;;;;;5053921;28;20539;-24
2023/03/13 07:23:26;;;;;;;7.90;2.35;;;;;;;;;;5053749;28;20106;-24
2023/03/13 07:25:57;;;;;;;9.20;2.30;;;;;;;;;;5053786;28;20033;-24
2023/03/13 07:28:24;;;;;;;8.73;2.42;;;;;;;;;;5053708;28;20043;-24
2023/03/13 07:30:51;;;;;;;8.35;2.22;;;;;;;;;;5053713;28;20036;-24
2023/03/13 07:33:19;;;;;;;5.28;1.77;;;;;;;;;;5053115;28;20029;-24
2023/03/13 07:35:50;;;;;;;7.22;2.00;;;;;;;;;;5053625;28;20021;-24
2023/03/13 07:38:17;;;;;;;5.47;2.30;;;;;;;;;;5053458;28;20048;-24
2023/03/13 07:40:48;;;;;;;6.78;1.80;;;;;;;;;;5053527;28;20029;-24
2023/03/13 07:43:15;;;;;;;6.90;2.10;;;;;;;;;;5053014;28;20584;-25
2023/03/13 07:45:52;;;;;;;4.57;1.77;;;;;;;;;;5053464;28;20028;-24
2023/03/13 07:48:20;;;;;;;7.28;1.95;;;;;;;;;;5053228;28;20021;-24
2023/03/13 07:50:47;;;;;;;5.13;1.55;;;;;;;;;;5053435;28;20513;-24
2023/03/13 07:53:19;;;;;;;5.00;1.63;;;;;;;;;;5053118;28;20144;-27
2023/03/13 07:55:53;;;;;;;4.40;1.77;;;;;;;;;;5053485;28;20033;-27
2023/03/13 07:58:20;;;;;;;5.88;1.70;;;;;;;;;;5053426;28;20033;-27
2023/03/13 08:00:47;;;;;;;6.65;1.70;;;;;;;;;;5053141;28;20125;-26
2023/03/13 08:03:14;;;;;;;7.00;1.80;;;;;;;;;;5052985;28;20382;-26
2023/03/13 08:05:41;;;;;;;5.90;1.60;;;;;;;;;;5053035;28;20037;-27
2023/03/13 08:08:09;;;;;;;5.97;1.73;;;;;;;;;;5052936;28;20128;-27
2023/03/13 08:10:36;;;;;;;5.13;1.73;;;;;;;;;;5053028;28;20021;-27
2023/03/13 08:13:03;;;;;;;5.22;1.80;;;;;;;;;;5052462;28;20137;-27
2023/03/13 08:15:30;;;;;;;4.38;1.50;;;;;;;;;;5052856;28;20048;-27
2023/03/13 08:17:57;;;;;;;5.07;1.48;;;;;;;;;;5052520;28;20451;-28
2023/03/13 08:20:24;;;;;;;5.65;1.55;;;;;;;;;;5052786;28;20048;-26
2023/03/13 08:22:51;;;;;;;2.97;1.42;;;;;;;;;;5052654;28;20064;-27
2023/03/13 08:25:18;;;;;;;4.40;1.17;;;;;;;;;;5052666;28;20024;-28
2023/03/13 08:27:44;;;;;;;7.25;1.80;;;;;;;;;;5052578;28;20060;-27
2023/03/13 08:30:12;;;;;;;5.95;2.00;;;;;;;;;;5052564;28;20112;-26
2023/03/13 08:32:39;;;;;;;4.25;1.70;;;;;;;;;;5052440;28;20390;-26
2023/03/13 08:35:06;;;;;;;3.00;1.45;;;;;;;;;;5052799;28;20379;-27
2023/03/13 08:37:33;;;;;;;3.83;1.35;;;;;;;;;;5052454;28;20033;-27
2023/03/13 08:40:00;;;;;;;4.07;1.38;;;;;;;;;;5052449;28;20029;-27
2023/03/13 08:42:27;;;;;;;5.88;1.42;;;;;;;;;;5052315;28;20100;-27
2023/03/13 08:44:54;;;;;;;4.05;1.40;;;;;;;;;;5052385;28;20021;-27
2023/03/13 08:47:21;;;;;;;2.97;1.33;;;;;;;;;;5052308;28;20624;-27
2023/03/13 08:49:48;;;;;;;3.35;1.30;;;;;;;;;;5052305;28;20120;-27
2023/03/13 08:52:15;;;;;;;4.32;1.40;;;;;;;;;;5052128;28;20025;-27
2023/03/13 08:54:42;;;;;;;4.30;1.45;;;;;;;;;;5051503;28;20059;-27
2023/03/13 08:57:09;;;;;;;4.35;1.20;;;;;;;;;;5052006;28;20029;-27
2023/03/13 08:59:36;;;;;;;5.05;1.20;;;;;;;;;;5051937;28;20070;-27
2023/03/13 09:02:03;;;;;;;3.60;1.35;;;;;;;;;;5051934;28;20029;-24
2023/03/13 09:04:30;;;;;;;4.05;1.33;;;;;;;;;;5052066;28;20036;-25
2023/03/13 09:06:57;;;;;;;2.92;1.20;;;;;;;;;;5051962;28;20075;-24
2023/03/13 09:09:24;;;;;;;2.55;1.10;;;;;;;;;;5051946;28;20040;-25
2023/03/13 09:11:51;;;;;;;2.83;1.30;;;;;;;;;;5051376;28;20074;-24
2023/03/13 09:14:18;;;;;;;4.57;1.30;;;;;;;;;;5041652;28;20025;-28
2023/03/13 09:16:46;;;;;;;3.78;1.30;;;;;;;;;;5030398;28;20651;-27
2023/03/13 09:19:14;;;;;;;4.78;0.95;;;;;;;;;;5031806;28;20041;-27
2023/03/13 09:21:41;;;;;;;6.68;1.23;;;;;;;;;;5031959;28;20134;-26
2023/03/13 09:24:08;;;;;;;4.60;1.20;;;;;;;;;;5030910;28;20029;-27
2023/03/13 09:26:35;;;;;;;5.32;1.30;;;;;;;;;;5028009;28;20494;-24
2023/03/13 09:29:02;;;;;;;4.45;1.20;;;;;;;;;;5031379;28;20053;-24
2023/03/13 09:31:30;;;;;;;5.15;1.05;;;;;;;;;;5031692;28;20119;-24
2023/03/13 09:33:57;;;;;;;7.55;1.38;;;;;;;;;;5031385;28;20124;-24
2023/03/13 09:36:25;;;;;;;2.78;0.95;;;;;;;;;;5030073;28;20503;-24
2023/03/13 09:38:53;;;;;;;7.55;1.50;;;;;;;;;;5018990;28;20037;-27
2023/03/13 09:41:25;;;;;;;6.15;1.15;;;;;;;;;;5029926;28;20515;-27
2023/03/13 09:43:52;;;;;;;;;;;;;;;;;;5031956;28;20029;-27
2023/03/13 09:46:23;;;;;;;5.88;1.10;;;;;;;;;;5031553;28;19909;-27
2023/03/13 09:48:54;;;;;;;5.00;1.27;;;;;;;;;;5031574;28;20029;-27
2023/03/13 09:51:28;;;;;;;5.10;1.10;;;;;;;;;;5031376;28;20047;-27
2023/03/13 09:53:54;;;;;;;3.78;1.13;;;;;;;;;;5031488;28;20521;-27
2023/03/13 09:56:28;;;;;;;4.05;1.02;;;;;;;;;;5031448;28;20030;-27
2023/03/13 09:58:57;;;;;;;5.10;1.30;;;;;;;;;;5031463;28;20124;-27
2023/03/13 10:01:28;;;;;;;3.35;1.20;;;;;;;;;;5031283;28;20106;-27
2023/03/13 10:04:01;;;;;;;3.20;1.10;;;;;;;;;;5030926;28;20033;-24
2023/03/13 10:06:31;;;;;;;2.72;1.13;;;;;;;;;;5032550;28;20022;-24
2023/03/13 10:09:00;;;;;;;6.45;1.35;;;;;;;;;;5035240;28;20037;-25
2023/03/13 10:11:40;;;;;;;3.55;1.20;;;;;;;;;;5034745;28;20447;-24
2023/03/13 10:14:07;;;;;;;4.95;1.40;;;;;;;;;;5034809;28;20087;-25
2023/03/13 10:16:56;;;;;;;10.15;1.50;;;;;;;;;;5035072;28;20033;-27
2023/03/13 10:19:42;;;;;;;5.70;1.45;;;;;;;;;;5035037;28;20025;-27
2023/03/13 10:22:14;;;;;;;3.30;1.23;;;;;;;;;;5034838;28;20033;-27
2023/03/13 10:24:54;;;;;;;6.72;1.35;;;;;;;;;;5034956;28;20052;-27
2023/03/13 10:27:21;;;;;;;26.70;2.53;;;;;;;;;;5034348;28;20553;-26
2023/03/13 10:29:48;;;;;;;6.05;1.50;;;;;;;;;;5034787;28;20018;-25
2023/03/13 10:32:16;;;;;;;5.32;1.40;;;;;;;;;;5034806;28;20033;-24
2023/03/13 10:34:59;;;;;;;4.63;1.50;;;;;;;;;;5034773;28;20030;-25
2023/03/13 10:37:29;;;;;;;4.28;1.48;;;;;;;;;;5034824;28;20033;-24
2023/03/13 10:40:11;;;;;;;3.53;1.40;;;;;;;;;;5033901;28;20021;-26
2023/03/13 10:42:42;;;;;;;3.70;1.48;;;;;;;;;;5032574;28;20667;-26
2023/03/13 10:45:17;;;;;;;4.05;1.20;;;;;;;;;;5031476;28;20483;-27
2023/03/13 10:47:44;;;;;;;3.25;1.20;;;;;;;;;;5034005;28;20045;-27
2023/03/13 10:50:18;;;;;;;5.47;1.33;;;;;;;;;;5034432;28;20398;-28
2023/03/13 10:52:46;;;;;;;5.03;1.77;;;;;;;;;;5034425;28;20075;-26
2023/03/13 10:55:18;;;;;;;3.83;1.20;;;;;;;;;;5027674;28;20103;-28
2023/03/13 10:57:59;;;;;;;6.85;1.90;;;;;;;;;;5019591;28;20497;-27
2023/03/13 11:00:26;;;;;;;5.93;1.67;;;;;;;;;;5025345;28;20027;-24
2023/03/13 11:02:53;;;;;;;3.67;1.33;;;;;;;;;;5031762;28;20144;-24
2023/03/13 11:05:23;;;;;;;4.97;1.33;;;;;;;;;;5021593;28;20128;-30
2023/03/13 11:07:51;;;;;;;3.30;1.15;;;;;;;;;;5033919;28;20461;-29
2023/03/13 11:10:18;;;;;;;3.30;1.35;;;;;;;;;;5031690;28;20033;-30
2023/03/13 11:12:50;;;;;;;5.68;1.50;;;;;;;;;;5032885;28;20567;-30
2023/03/13 11:15:20;;;;;;;3.95;1.30;;;;;;;;;;5033991;28;20044;-31
2023/03/13 11:17:51;;;;;;;5.28;1.40;;;;;;;;;;5033086;28;20029;-30
2023/03/13 11:20:30;;;;;;;5.20;1.30;;;;;;;;;;5032513;28;20072;-26
2023/03/13 11:23:03;;;;;;;4.07;1.58;;;;;;;;;;5032177;28;20554;-24
2023/03/13 11:25:34;;;;;;;4.53;1.50;;;;;;;;;;5033801;28;20549;-24
2023/03/13 11:28:06;;;;;;;7.25;1.40;;;;;;;;;;5033134;28;20038;-27
2023/03/13 11:30:51;;;;;;;3.83;1.20;;;;;;;;;;5023181;28;20421;-24
2023/03/13 11:33:39;;;;;;;3.45;1.25;;;;;;;;;;5021872;28;20030;-27
2023/03/13 11:36:09;;;;;;;7.10;1.42;;;;;;;;;;5011752;28;20410;-29
2023/03/13 11:38:39;;;;;;;2.22;1.23;;;;;;;;;;5025523;28;20018;-26
2023/03/13 11:41:06;;;;;;;7.18;1.63;;;;;;;;;;5025469;28;20383;-30
2023/03/13 11:43:48;;;;;;;8.20;1.40;;;;;;;;;;5021031;28;20038;-26
2023/03/13 11:46:21;;;;;;;5.38;1.30;;;;;;;;;;5022838;28;20038;-26
2023/03/13 11:48:50;;;;;;;6.13;1.50;;;;;;;;;;5022496;28;20030;-29
2023/03/13 11:51:35;;;;;;;7.05;1.30;;;;;;;;;;5022935;28;20538;-26
2023/03/13 11:54:22;;;;;;;9.00;1.73;;;;;;;;;;5026053;28;20108;-30
2023/03/13 11:57:28;;;;;;;4.43;1.40;;;;;;;;;;5021350;28;20119;-27
2023/03/13 12:00:15;;;;;;;2.35;1.33;;;;;;;;;;4950804;28;20043;-27
2023/03/13 12:02:56;;;;;;;3.17;1.17;;;;;;;;;;5017774;28;20103;-25
2023/03/13 12:05:23;;;;;;;7.72;1.55;;;;;;;;;;5020490;28;20030;-25
2023/03/13 12:08:13;;;;;;;3.63;1.08;;;;;;;;;;5023223;28;20487;-31
2023/03/13 12:10:45;;;;;;;5.63;1.38;;;;;;;;;;5011396;28;20042;-28
2023/03/13 12:13:22;;;;;;;3.95;1.20;;;;;;;;;;5027834;28;20049;-27
2023/03/13 12:15:52;;;;;;;6.85;1.20;;;;;;;;;;5019318;28;20033;-29
2023/03/13 12:18:39;;;;;;;8.40;1.23;;;;;;;;;;5025102;28;20038;-27
2023/03/13 12:21:17;;;;;;;5.60;1.40;;;;;;;;;;5021657;28;20416;-26
2023/03/13 12:23:59;;;;;;;5.57;1.15;;;;;;;;;;5019047;28;20030;-28
2023/03/13 12:26:26;;;;;;;;;;;;;;;;;;5019421;28;20029;-28
2023/03/13 12:28:56;;;;;;;4.82;1.75;;;;;;;;;;5018473;28;20649;-28
2023/03/13 12:31:26;;;;;;;7.93;1.35;;;;;;;;;;5028682;28;20071;-29
2023/03/13 12:34:12;;;;;;;6.70;1.30;;;;;;;;;;5032564;28;20038;-27
2023/03/13 12:36:41;;;;;;;6.45;1.30;;;;;;;;;;5031053;28;20028;-28
2023/03/13 12:39:22;;;;;;;15.48;1.95;;;;;;;;;;5014910;28;20038;-27
2023/03/13 12:41:57;;;;;;;10.82;1.65;;;;;;;;;;5012405;28;20139;-29
2023/03/13 12:44:24;;;;;;;4.53;1.38;;;;;;;;;;5012441;28;20080;-29
2023/03/13 12:46:59;;;;;;;5.38;1.55;;;;;;;;;;5012585;28;20510;-29
2023/03/13 12:49:41;;;;;;;9.70;1.40;;;;;;;;;;5012557;28;20071;-28
2023/03/13 12:52:08;;;;;;;;;;;;;;;;;;5012915;28;20042;-29
2023/03/13 12:54:43;;;;;;;4.35;1.15;;;;;;;;;;5012614;28;19955;-29
2023/03/13 12:57:13;;;;;;;3.55;1.17;;;;;;;;;;5012509;28;20033;-29
2023/03/13 12:59:45;;;;;;;2.40;1.00;;;;;;;;;;5012450;28;20133;-28
2023/03/13 13:02:17;;;;;;;4.23;1.43;;;;;;;;;;5012301;28;20542;-31
2023/03/13 13:04:46;;;;;;;2.72;1.00;;;;;;;;;;5012389;28;20072;-28
2023/03/13 13:07:32;;;;;;;8.27;1.27;;;;;;;;;;5012210;28;20096;-28
2023/03/13 13:10:00;;;;;;;3.88;1.15;;;;;;;;;;5012215;28;20469;-29
2023/03/13 13:12:27;;;;;;;2.95;1.20;;;;;;;;;;5011963;28;20128;-29
2023/03/13 13:15:02;;;;;;;4.50;1.17;;;;;;;;;;5012130;28;20117;-30
2023/03/13 13:17:48;;;;;;;2.92;1.00;;;;;;;;;;5012217;28;20109;-28
2023/03/13 13:20:32;;;;;;;1.85;1.08;;;;;;;;;;5012130;28;20030;-29
2023/03/13 13:23:17;;;;;;;3.17;1.30;;;;;;;;;;5012008;28;20115;-29
2023/03/13 13:25:44;;;;;;;3.33;1.20;;;;;;;;;;5011973;28;20041;-28
2023/03/13 13:28:25;;;;;;;3.65;1.10;;;;;;;;;;5011968;28;20164;-29
2023/03/13 13:30:52;;;;;;;5.93;1.10;;;;;;;;;;5011950;28;20400;-29
2023/03/13 13:33:20;;;;;;;3.90;1.20;;;;;;;;;;5011952;28;20033;-28
2023/03/13 13:36:04;;;;;;;2.53;1.10;;;;;;;;;;5011924;28;20045;-29
2023/03/13 13:38:35;;;;;;;2.63;1.10;;;;;;;;;;5011901;28;20566;-29
2023/03/13 13:41:02;;;;;;;3.58;1.17;;;;;;;;;;5011369;28;20030;-28
2023/03/13 13:43:34;;;;;;;2.40;1.15;;;;;;;;;;5011907;28;20030;-29
2023/03/13 13:46:00;;;;;;;2.87;1.00;;;;;;;;;;5011923;28;20026;-28
2023/03/13 13:48:30;;;;;;;3.67;1.27;;;;;;;;;;5011724;28;20080;-28
2023/03/13 13:51:17;;;;;;;4.47;1.13;;;;;;;;;;5011876;28;20042;-29
2023/03/13 13:53:44;;;;;;;3.92;1.00;;;;;;;;;;5011713;28;20046;-28
2023/03/13 13:56:29;;;;;;;1.55;0.90;;;;;;;;;;5011852;28;20108;-29
2023/03/13 13:59:19;;;;;;;2.83;1.08;;;;;;;;;;5010492;28;20042;-29
2023/03/13 14:01:46;;;;;;;3.40;1.20;;;;;;;;;;5003959;28;20510;-28
2023/03/13 14:04:16;;;;;;;2.88;1.05;;;;;;;;;;5011983;28;20411;-29
2023/03/13 14:06:45;;;;;;;3.45;0.93;;;;;;;;;;5011555;28;20030;-29
2023/03/13 14:09:30;;;;;;;2.40;0.98;;;;;;;;;;5011595;28;20066;-29
2023/03/13 14:11:57;;;;;;;1.80;0.80;;;;;;;;;;5011303;28;20651;-28
2023/03/13 14:14:24;;;;;;;3.28;0.98;;;;;;;;;;5011590;28;20369;-28
2023/03/13 14:16:55;;;;;;;2.72;1.00;;;;;;;;;;5011585;28;20141;-28
2023/03/13 14:19:39;;;;;;;2.22;1.13;;;;;;;;;;5011488;28;20471;-29
2023/03/13 14:22:07;;;;;;;1.40;0.90;;;;;;;;;;5011440;28;20038;-28
2023/03/13 14:24:35;;;;;;;1.77;0.93;;;;;;;;;;5010119;28;20087;-29
2023/03/13 14:27:02;;;;;;;2.78;1.00;;;;;;;;;;5011506;28;20088;-29
2023/03/13 14:29:29;;;;;;;2.25;1.13;;;;;;;;;;5011391;28;20105;-29
2023/03/13 14:31:57;;;;;;;2.08;0.90;;;;;;;;;;5010024;28;20037;-29
2023/03/13 14:34:25;;;;;;;3.72;1.13;;;;;;;;;;5011436;28;20717;-29
2023/03/13 14:36:53;;;;;;;3.20;1.23;;;;;;;;;;5011403;28;20041;-29
2023/03/13 14:39:32;;;;;;;3.47;1.00;;;;;;;;;;5011345;28;20502;-28
2023/03/13 14:42:18;;;;;;;3.03;0.93;;;;;;;;;;5011382;28;20037;-29
2023/03/13 14:44:48;;;;;;;3.47;1.10;;;;;;;;;;5011364;28;20066;-29
2023/03/13 14:47:29;;;;;;;2.03;0.80;;;;;;;;;;5011115;28;20038;-28
2023/03/13 14:50:00;;;;;;;1.38;0.88;;;;;;;;;;5011257;28;20052;-29
2023/03/13 14:52:29;;;;;;;1.97;0.80;;;;;;;;;;5011177;28;20029;-28
2023/03/13 14:54:57;;;;;;;3.95;1.23;;;;;;;;;;5014403;28;20373;-28